Irish Sea — WDB5555 — position and weather

sailwx.info

Track history (hours):
 
Tides and Currents Weather Stations Pressure Air Temp Water Temp Dewpoint Dewpoint Depression Visibility Wind Speed Wind Dir Waves Ship Positions

Irish Sea

Owner: Kirby Offshore Marine, LLC, Staten Island, NY. More information available from US FCC via Universal Licensing System and Coast Guard Vessel Documentation Center.

Last reported at 2015-Apr-18 20:33 UTC. Time now 2015-Apr-18 23:32 UTC.
Position N 40°48' W 073°54'.

Length 152 m; draft 6.8 m.

Type: Ship (hazmat cat B). MMSI: 366910920.

Date/timePositionNaut miles runAvg speedWind from/ knotsBaromVisibWave heightAir tempDewpointWater temp
2015-Apr-18 20:33N 40°48' W 073°54'3 2.5
2015-Apr-18 19:16N 40°46' W 073°57'3 4.4
2015-Apr-18 18:33N 40°43' W 073°58'4 3.8
2015-Apr-18 17:33N 40°40' W 074°02'3 2.6
2015-Apr-18 16:33N 40°38' W 074°03'6 5.9
2015-Apr-18 15:33N 40°32' W 074°01'19 6.2
2015-Apr-18 12:31N 40°14' W 073°55'24 8.0
2015-Apr-18 09:33N 39°50' W 073°56'8 7.9
2015-Apr-18 08:32N 39°43' W 073°60'8 7.7
2015-Apr-18 07:33N 39°36' W 074°04'8 7.6
2015-Apr-18 06:29N 39°29' W 074°09'49 7.9
2015-Apr-18 00:14N 38°51' W 074°49'5 7.0
2015-Apr-17 23:33N 38°49' W 074°55'6 5.7
2015-Apr-17 22:33N 38°49' W 075°02'6 5.8
2015-Apr-17 21:33N 38°54' W 075°05'6 6.0
2015-Apr-17 20:33N 38°60' W 075°08'8 7.6
2015-Apr-17 19:33N 39°07' W 075°13'9 9.5
2015-Apr-17 18:33N 39°15' W 075°19'10 9.9
2015-Apr-17 17:34N 39°22' W 075°28'8 8.4
2015-Apr-17 16:33N 39°29' W 075°34'6 6.0
2015-Apr-17 15:33N 39°35' W 075°35'0 0.4
2015-Apr-17 14:34N 39°35' W 075°35'0 0.0
2015-Apr-17 13:33N 39°35' W 075°35'0 0.0
2015-Apr-17 12:33N 39°35' W 075°35'0 0.0
2015-Apr-17 11:33N 39°35' W 075°35'0 0.0
2015-Apr-17 10:33N 39°35' W 075°35'0 0.0
2015-Apr-17 09:33N 39°35' W 075°35'0 0.0
2015-Apr-17 08:33N 39°35' W 075°35'0 0.0
2015-Apr-17 07:33N 39°35' W 075°35'0 0.0
2015-Apr-17 06:33N 39°35' W 075°35'0 0.0
2015-Apr-17 05:33N 39°35' W 075°35'0 0.0
2015-Apr-17 04:30N 39°35' W 075°35'0 0.0
2015-Apr-17 03:33N 39°35' W 075°35'0 0.0
2015-Apr-17 02:33N 39°35' W 075°35'0 0.0
2015-Apr-17 01:33N 39°35' W 075°35'0 0.0
2015-Apr-17 00:33N 39°35' W 075°35'0 0.0
2015-Apr-16 23:30N 39°35' W 075°35'0 0.0
2015-Apr-16 22:33N 39°35' W 075°35'0 0.0
2015-Apr-16 21:30N 39°35' W 075°35'0 0.0
2015-Apr-16 20:33N 39°35' W 075°35'0 0.0
2015-Apr-16 19:33N 39°35' W 075°35'3 2.7
2015-Apr-16 18:33N 39°38' W 075°35'6 5.6
2015-Apr-16 17:33N 39°42' W 075°31'1 0.8
2015-Apr-16 16:32N 39°43' W 075°30'0 0.1
2015-Apr-16 15:32N 39°43' W 075°30'0 0.0
2015-Apr-16 14:32N 39°43' W 075°30'0 0.0
2015-Apr-16 13:32N 39°43' W 075°30'0 0.0
2015-Apr-16 12:32N 39°43' W 075°30'0 0.0
2015-Apr-16 11:32N 39°43' W 075°30'0 0.2
2015-Apr-16 10:32N 39°43' W 075°30'0 0.1
2015-Apr-16 09:32N 39°43' W 075°30'0 0.0
2015-Apr-16 08:32N 39°43' W 075°30'0 0.0
2015-Apr-16 07:32N 39°43' W 075°30'0 0.0
2015-Apr-16 06:32N 39°43' W 075°30'0 0.0
2015-Apr-16 05:32N 39°43' W 075°30'0 0.0
2015-Apr-16 04:32N 39°43' W 075°30'0 0.2
2015-Apr-16 03:29N 39°43' W 075°30'0 0.0
2015-Apr-16 02:32N 39°43' W 075°30'0 0.0
2015-Apr-16 01:32N 39°43' W 075°30'0 0.0
2015-Apr-16 00:32N 39°43' W 075°30'0 0.0
2015-Apr-15 23:32N 39°43' W 075°30'0 0.0
2015-Apr-15 22:32N 39°43' W 075°30'0 0.2
2015-Apr-15 21:32N 39°43' W 075°30'0 0.0
2015-Apr-15 20:31N 39°43' W 075°30'0 0.0
2015-Apr-15 19:31N 39°43' W 075°30'0 0.0
2015-Apr-15 18:31N 39°43' W 075°30'0 0.0
2015-Apr-15 17:31N 39°43' W 075°30'0 0.0
2015-Apr-15 16:31N 39°43' W 075°30'0 0.0
2015-Apr-15 15:31N 39°43' W 075°30'0 0.1
2015-Apr-15 14:33N 39°43' W 075°30'0 0.1
2015-Apr-15 13:34N 39°43' W 075°30'0 0.0
2015-Apr-15 12:33N 39°43' W 075°30'0 0.0
2015-Apr-15 11:34N 39°43' W 075°30'0 0.0
2015-Apr-15 10:34N 39°43' W 075°30'0 0.1
2015-Apr-15 09:33N 39°43' W 075°30'0 0.2
2015-Apr-15 08:33N 39°43' W 075°30'0 0.0
2015-Apr-15 07:33N 39°43' W 075°30'2 1.7
2015-Apr-15 06:34N 39°41' W 075°31'7 6.6
2015-Apr-15 05:34N 39°35' W 075°33'7 7.2
2015-Apr-15 04:33N 39°28' W 075°34'8 7.6
2015-Apr-15 03:33N 39°22' W 075°27'8 7.9
2015-Apr-15 02:33N 39°16' W 075°20'8 8.5
2015-Apr-15 01:34N 39°09' W 075°14'9 8.7
2015-Apr-15 00:34N 39°01' W 075°09'9 9.0
2015-Apr-14 23:34N 38°53' W 075°04'8 8.0
2015-Apr-14 22:33N 38°49' W 074°56'13 9.4
2015-Apr-14 21:08N 38°58' W 074°43'6 9.7
2015-Apr-14 20:30N 39°02' W 074°38'21 9.6
2015-Apr-14 18:17N 39°18' W 074°19'11 9.4
2015-Apr-14 17:03N 39°27' W 074°10'5 9.5
2015-Apr-14 16:33N 39°31' W 074°07'9 9.5
2015-Apr-14 15:33N 39°40' W 074°02'9 9.2
2015-Apr-14 14:33N 39°48' W 073°57'45 8.9
2015-Apr-14 09:33N 40°33' W 074°02'8 8.3
2015-Apr-14 08:33N 40°41' W 074°01'6 6.0
2015-Apr-14 07:29N 40°46' W 073°57'5 4.9
2015-Apr-14 06:33N 40°48' W 073°51'7 7.4
2015-Apr-14 05:33N 40°53' W 073°44'9 9.1
2015-Apr-14 04:33N 40°57' W 073°33'9 8.9
2015-Apr-14 03:34N 41°00' W 073°22'9 9.0
2015-Apr-14 02:33N 40°60' W 073°10'5 5.0
2015-Apr-14 01:33N 40°57' W 073°04'0 0.0
2015-Apr-14 00:29N 40°57' W 073°04'0 0.0
2015-Apr-13 20:11N 40°57' W 073°04'0 0.0
2015-Apr-13 18:29N 40°57' W 073°04'0 0.0
2015-Apr-13 17:29N 40°57' W 073°04'0 0.0
2015-Apr-13 16:29N 40°57' W 073°04'0 0.0
2015-Apr-13 15:08N 40°57' W 073°04'0 0.0
2015-Apr-13 13:29N 40°57' W 073°04'0 0.0
2015-Apr-13 12:29N 40°57' W 073°04'0 0.0
2015-Apr-13 11:23N 40°57' W 073°04'0 0.0
2015-Apr-13 10:32N 40°57' W 073°04'0 0.0
2015-Apr-13 09:26N 40°57' W 073°04'0 0.0
2015-Apr-13 08:32N 40°57' W 073°04'0 0.0
2015-Apr-13 07:20N 40°57' W 073°04'0 0.0
2015-Apr-13 05:23N 40°57' W 073°04'0 0.0
2015-Apr-13 04:23N 40°57' W 073°04'0 0.0
2015-Apr-13 03:23N 40°57' W 073°04'0 0.0
2015-Apr-13 00:05N 40°57' W 073°04'2 1.0
2015-Apr-12 21:33N 40°59' W 073°06'3 2.4
2015-Apr-12 20:15N 40°60' W 073°10'4 5.5
2015-Apr-12 19:33N 40°60' W 073°16'6 5.8
2015-Apr-12 18:33N 41°00' W 073°23'8 7.5
2015-Apr-12 17:33N 40°57' W 073°32'15 7.5
2015-Apr-12 15:31N 40°48' W 073°49'7 6.2
2015-Apr-12 14:26N 40°46' W 073°57'4 4.3
2015-Apr-12 13:34N 40°42' W 073°59'5 4.7
2015-Apr-12 12:33N 40°38' W 074°03'0 0.1
2015-Apr-12 11:33N 40°38' W 074°03'3 3.5
2015-Apr-12 10:33N 40°35' W 074°02'6 5.9
2015-Apr-12 09:32N 40°30' W 073°57'39 7.3
2015-Apr-12 04:14N 39°52' W 073°58'6 7.9
2015-Apr-12 03:30N 39°46' W 073°59'7 7.8
2015-Apr-12 02:33N 39°39' W 074°02'8 7.5
2015-Apr-12 01:33N 39°32' W 074°06'  
2015-Apr-09 04:32N 39°31' W 074°08'10 9.8
2015-Apr-09 03:33N 39°39' W 074°02'10 9.5
2015-Apr-09 02:33N 39°48' W 073°57'43 8.6
2015-Apr-08 21:30N 40°31' W 074°01'9 9.7
2015-Apr-08 20:34N 40°41' W 074°02'  
Track history (hours):
 
Tides and Currents Weather Stations Pressure Air Temp Water Temp Dewpoint Dewpoint Depression Visibility Wind Speed Wind Dir Waves Ship Positions

Irish Sea

Owner: Kirby Offshore Marine, LLC, Staten Island, NY. More information available from US FCC via Universal Licensing System and Coast Guard Vessel Documentation Center.

Last reported at 2015-Apr-18 20:33 UTC. Time now 2015-Apr-18 23:32 UTC.
Position N 40°48' W 073°54'.

Length 152 m; draft 6.8 m.

Type: Ship (hazmat cat B). MMSI: 366910920.

Date/timePositionNaut miles runAvg speedWind from/ knotsBaromVisibWave heightAir tempDewpointWater temp
2015-Apr-18 20:33N 40°48' W 073°54'3 2.5
2015-Apr-18 19:16N 40°46' W 073°57'3 4.4
2015-Apr-18 18:33N 40°43' W 073°58'4 3.8
2015-Apr-18 17:33N 40°40' W 074°02'3 2.6
2015-Apr-18 16:33N 40°38' W 074°03'6 5.9
2015-Apr-18 15:33N 40°32' W 074°01'19 6.2
2015-Apr-18 12:31N 40°14' W 073°55'24 8.0
2015-Apr-18 09:33N 39°50' W 073°56'8 7.9
2015-Apr-18 08:32N 39°43' W 073°60'8 7.7
2015-Apr-18 07:33N 39°36' W 074°04'8 7.6
2015-Apr-18 06:29N 39°29' W 074°09'49 7.9
2015-Apr-18 00:14N 38°51' W 074°49'5 7.0
2015-Apr-17 23:33N 38°49' W 074°55'6 5.7
2015-Apr-17 22:33N 38°49' W 075°02'6 5.8
2015-Apr-17 21:33N 38°54' W 075°05'6 6.0
2015-Apr-17 20:33N 38°60' W 075°08'8 7.6
2015-Apr-17 19:33N 39°07' W 075°13'9 9.5
2015-Apr-17 18:33N 39°15' W 075°19'10 9.9
2015-Apr-17 17:34N 39°22' W 075°28'8 8.4
2015-Apr-17 16:33N 39°29' W 075°34'6 6.0
2015-Apr-17 15:33N 39°35' W 075°35'0 0.4
2015-Apr-17 14:34N 39°35' W 075°35'0 0.0
2015-Apr-17 13:33N 39°35' W 075°35'0 0.0
2015-Apr-17 12:33N 39°35' W 075°35'0 0.0
2015-Apr-17 11:33N 39°35' W 075°35'0 0.0
2015-Apr-17 10:33N 39°35' W 075°35'0 0.0
2015-Apr-17 09:33N 39°35' W 075°35'0 0.0
2015-Apr-17 08:33N 39°35' W 075°35'0 0.0
2015-Apr-17 07:33N 39°35' W 075°35'0 0.0
2015-Apr-17 06:33N 39°35' W 075°35'0 0.0
2015-Apr-17 05:33N 39°35' W 075°35'0 0.0
2015-Apr-17 04:30N 39°35' W 075°35'0 0.0
2015-Apr-17 03:33N 39°35' W 075°35'0 0.0
2015-Apr-17 02:33N 39°35' W 075°35'0 0.0
2015-Apr-17 01:33N 39°35' W 075°35'0 0.0
2015-Apr-17 00:33N 39°35' W 075°35'0 0.0
2015-Apr-16 23:30N 39°35' W 075°35'0 0.0
2015-Apr-16 22:33N 39°35' W 075°35'0 0.0
2015-Apr-16 21:30N 39°35' W 075°35'0 0.0
2015-Apr-16 20:33N 39°35' W 075°35'0 0.0
2015-Apr-16 19:33N 39°35' W 075°35'3 2.7
2015-Apr-16 18:33N 39°38' W 075°35'6 5.6
2015-Apr-16 17:33N 39°42' W 075°31'1 0.8
2015-Apr-16 16:32N 39°43' W 075°30'0 0.1
2015-Apr-16 15:32N 39°43' W 075°30'0 0.0
2015-Apr-16 14:32N 39°43' W 075°30'0 0.0
2015-Apr-16 13:32N 39°43' W 075°30'0 0.0
2015-Apr-16 12:32N 39°43' W 075°30'0 0.0
2015-Apr-16 11:32N 39°43' W 075°30'0 0.2
2015-Apr-16 10:32N 39°43' W 075°30'0 0.1
2015-Apr-16 09:32N 39°43' W 075°30'0 0.0
2015-Apr-16 08:32N 39°43' W 075°30'0 0.0
2015-Apr-16 07:32N 39°43' W 075°30'0 0.0
2015-Apr-16 06:32N 39°43' W 075°30'0 0.0
2015-Apr-16 05:32N 39°43' W 075°30'0 0.0
2015-Apr-16 04:32N 39°43' W 075°30'0 0.2
2015-Apr-16 03:29N 39°43' W 075°30'0 0.0
2015-Apr-16 02:32N 39°43' W 075°30'0 0.0
2015-Apr-16 01:32N 39°43' W 075°30'0 0.0
2015-Apr-16 00:32N 39°43' W 075°30'0 0.0
2015-Apr-15 23:32N 39°43' W 075°30'0 0.0
2015-Apr-15 22:32N 39°43' W 075°30'0 0.2
2015-Apr-15 21:32N 39°43' W 075°30'0 0.0
2015-Apr-15 20:31N 39°43' W 075°30'0 0.0
2015-Apr-15 19:31N 39°43' W 075°30'0 0.0
2015-Apr-15 18:31N 39°43' W 075°30'0 0.0
2015-Apr-15 17:31N 39°43' W 075°30'0 0.0
2015-Apr-15 16:31N 39°43' W 075°30'0 0.0
2015-Apr-15 15:31N 39°43' W 075°30'0 0.1
2015-Apr-15 14:33N 39°43' W 075°30'0 0.1
2015-Apr-15 13:34N 39°43' W 075°30'0 0.0
2015-Apr-15 12:33N 39°43' W 075°30'0 0.0
2015-Apr-15 11:34N 39°43' W 075°30'0 0.0
2015-Apr-15 10:34N 39°43' W 075°30'0 0.1
2015-Apr-15 09:33N 39°43' W 075°30'0 0.2
2015-Apr-15 08:33N 39°43' W 075°30'0 0.0
2015-Apr-15 07:33N 39°43' W 075°30'2 1.7
2015-Apr-15 06:34N 39°41' W 075°31'7 6.6
2015-Apr-15 05:34N 39°35' W 075°33'7 7.2
2015-Apr-15 04:33N 39°28' W 075°34'8 7.6
2015-Apr-15 03:33N 39°22' W 075°27'8 7.9
2015-Apr-15 02:33N 39°16' W 075°20'8 8.5
2015-Apr-15 01:34N 39°09' W 075°14'9 8.7
2015-Apr-15 00:34N 39°01' W 075°09'9 9.0
2015-Apr-14 23:34N 38°53' W 075°04'8 8.0
2015-Apr-14 22:33N 38°49' W 074°56'13 9.4
2015-Apr-14 21:08N 38°58' W 074°43'6 9.7
2015-Apr-14 20:30N 39°02' W 074°38'21 9.6
2015-Apr-14 18:17N 39°18' W 074°19'11 9.4
2015-Apr-14 17:03N 39°27' W 074°10'5 9.5
2015-Apr-14 16:33N 39°31' W 074°07'9 9.5
2015-Apr-14 15:33N 39°40' W 074°02'9 9.2
2015-Apr-14 14:33N 39°48' W 073°57'45 8.9
2015-Apr-14 09:33N 40°33' W 074°02'8 8.3
2015-Apr-14 08:33N 40°41' W 074°01'6 6.0
2015-Apr-14 07:29N 40°46' W 073°57'5 4.9
2015-Apr-14 06:33N 40°48' W 073°51'7 7.4
2015-Apr-14 05:33N 40°53' W 073°44'9 9.1
2015-Apr-14 04:33N 40°57' W 073°33'9 8.9
2015-Apr-14 03:34N 41°00' W 073°22'9 9.0
2015-Apr-14 02:33N 40°60' W 073°10'5 5.0
2015-Apr-14 01:33N 40°57' W 073°04'0 0.0
2015-Apr-14 00:29N 40°57' W 073°04'0 0.0
2015-Apr-13 20:11N 40°57' W 073°04'0 0.0
2015-Apr-13 18:29N 40°57' W 073°04'0 0.0
2015-Apr-13 17:29N 40°57' W 073°04'0 0.0
2015-Apr-13 16:29N 40°57' W 073°04'0 0.0
2015-Apr-13 15:08N 40°57' W 073°04'0 0.0
2015-Apr-13 13:29N 40°57' W 073°04'0 0.0
2015-Apr-13 12:29N 40°57' W 073°04'0 0.0
2015-Apr-13 11:23N 40°57' W 073°04'0 0.0
2015-Apr-13 10:32N 40°57' W 073°04'0 0.0
2015-Apr-13 09:26N 40°57' W 073°04'0 0.0
2015-Apr-13 08:32N 40°57' W 073°04'0 0.0
2015-Apr-13 07:20N 40°57' W 073°04'0 0.0
2015-Apr-13 05:23N 40°57' W 073°04'0 0.0
2015-Apr-13 04:23N 40°57' W 073°04'0 0.0
2015-Apr-13 03:23N 40°57' W 073°04'0 0.0
2015-Apr-13 00:05N 40°57' W 073°04'2 1.0
2015-Apr-12 21:33N 40°59' W 073°06'3 2.4
2015-Apr-12 20:15N 40°60' W 073°10'4 5.5
2015-Apr-12 19:33N 40°60' W 073°16'6 5.8
2015-Apr-12 18:33N 41°00' W 073°23'8 7.5
2015-Apr-12 17:33N 40°57' W 073°32'15 7.5
2015-Apr-12 15:31N 40°48' W 073°49'7 6.2
2015-Apr-12 14:26N 40°46' W 073°57'4 4.3
2015-Apr-12 13:34N 40°42' W 073°59'5 4.7
2015-Apr-12 12:33N 40°38' W 074°03'0 0.1
2015-Apr-12 11:33N 40°38' W 074°03'3 3.5
2015-Apr-12 10:33N 40°35' W 074°02'6 5.9
2015-Apr-12 09:32N 40°30' W 073°57'39 7.3
2015-Apr-12 04:14N 39°52' W 073°58'6 7.9
2015-Apr-12 03:30N 39°46' W 073°59'7 7.8
2015-Apr-12 02:33N 39°39' W 074°02'8 7.5
2015-Apr-12 01:33N 39°32' W 074°06'  
2015-Apr-09 04:32N 39°31' W 074°08'10 9.8
2015-Apr-09 03:33N 39°39' W 074°02'10 9.5
2015-Apr-09 02:33N 39°48' W 073°57'43 8.6
2015-Apr-08 21:30N 40°31' W 074°01'9 9.7
2015-Apr-08 20:34N 40°41' W 074°02'  

Dump ship's entire track history